Latest Weather Observations for Hopetoun North

IDW60801

Issued at 5:02 am WST Saturday 28 February 2015 (issued every 30 minutes, with the page automatically refreshed every 10 minutes)

About weather observations | Map of weather stations | Latest weather observations for WA | Other Formats
Station Details ID: 009961 Name: HOPETOUN NORTH Lat: -33.93 Lon: 120.13 Height: 26.0 m
Data from the previous 72 hours. | See also: Recent months at Hopetoun North
Date/Time
WST
Temp
°C
App
Temp
°C
Dew
Point
Rel
Hum
%
Delta-T
°C
Wind Press
QNH
hPa
Press
MSL
hPa
Rain
since 9 am
mm
Dir
 
Spd
km/h
Gust
km/h
Spd
kts
Gust
kts
28/05:00am 18.2 16.7 15.3 83 1.7 S 17 22 9 12 1015.2 1015.2 1.6
28/04:30am 18.3 16.0 15.6 84 1.6 S 22 28 12 15 1014.8 1014.8 1.6
28/04:00am 18.1 16.6 16.3 89 1.1 S 19 32 10 17 1014.4 1014.4 1.6
28/03:30am 17.6 15.3 16.6 94 0.6 S 24 33 13 18 1014.0 1014.0 1.6
28/03:00am 17.8 15.5 17.5 98 0.2 SSW 26 35 14 19 1013.7 1013.7 1.6
28/02:30am 17.8 16.6 17.6 99 0.1 SSW 20 28 11 15 1013.5 1013.5 1.6
28/02:00am 18.6 18.5 16.9 90 1.0 SW 13 20 7 11 1013.3 1013.3 0.4
28/01:30am 18.8 17.8 16.6 87 1.3 SW 17 22 9 12 1013.1 1013.1 0.4
28/01:00am 18.6 18.1 16.9 90 1.0 SSW 15 20 8 11 1013.2 1013.2 0.4
28/12:30am 18.3 18.9 16.8 91 0.9 SSW 9 13 5 7 1013.2 1013.2 0.4
28/12:00am 17.1 17.5 15.4 90 1.0 SSW 7 11 4 6 1013.3 1013.3 0.4
 
Date/Time
WST
Temp
°C
App
Temp
°C
Dew
Point
Rel
Hum
%
Delta-T
°C
Wind Press
QNH
hPa
Press
MSL
hPa
Rain
since 9 am
mm
Dir
 
Spd
km/h
Gust
km/h
Spd
kts
Gust
kts
27/11:30pm 17.4 18.1 15.7 90 1.0 SSW 6 9 3 5 1013.4 1013.4 0.4
27/11:00pm 17.4 18.0 15.9 91 0.9 SSW 7 9 4 5 1013.3 1013.3 0.4
27/10:30pm 17.7 18.3 15.9 89 1.1 SSW 7 11 4 6 1013.1 1013.1 0.4
27/10:00pm 18.4 18.4 16.2 87 1.3 SSW 11 13 6 7 1013.0 1013.0 0.4
27/09:30pm 18.8 18.5 16.4 86 1.4 SSW 13 17 7 9 1013.0 1013.0 0.4
27/09:00pm 18.4 18.1 16.4 88 1.2 SSW 13 17 7 9 1012.7 1012.7 0.4
27/08:30pm 18.6 17.8 16.2 86 1.4 SSW 15 20 8 11 1012.4 1012.4 0.4
27/08:00pm 18.7 17.6 16.3 86 1.4 SSW 17 24 9 13 1012.1 1012.0 0.4
27/07:30pm 18.9 17.1 16.1 84 1.7 SSW 20 28 11 15 1011.8 1011.7 0.4
27/07:00pm 18.9 16.3 16.0 83 1.7 SSW 24 37 13 20 1011.2 1011.1 0.4
27/06:30pm 19.0 16.5 16.2 84 1.7 SSW 24 32 13 17 1010.7 1010.6 0.4
27/06:00pm 19.7 16.8 16.2 80 2.1 SSW 26 35 14 19 1010.3 1010.2 0.4
27/05:30pm 19.6 16.0 16.3 81 2.0 SSW 30 43 16 23 1009.8 1009.7 0.4
27/05:00pm 20.1 16.3 16.7 81 2.1 SSW 32 46 17 25 1009.4 1009.3 0.4
27/04:30pm 20.0 17.6 18.3 90 1.1 SW 28 37 15 20 1009.0 1008.9 0.4
27/04:00pm 19.8 16.7 18.5 92 0.8 SSW 32 43 17 23 1008.7 1008.6 0.4
27/03:30pm 19.4 17.4 19.2 99 0.1 SSW 28 35 15 19 1008.3 1008.2 0.4
27/03:00pm 19.2 16.5 19.2 100 0.0 SSW 32 41 17 22 1007.9 1007.8 0.4
27/02:30pm 19.5 16.9 19.5 100 0.0 SSW 32 44 17 24 1007.7 1007.6 0.4
27/02:00pm 20.3 20.0 20.3 100 0.0 SSW 22 33 12 18 1007.5 1007.4 0.4
27/01:30pm 20.4 19.8 20.4 100 0.0 SSW 24 32 13 17 1007.3 1007.2 0.4
27/01:00pm 20.1 17.8 20.1 100 0.0 SSW 32 43 17 23 1007.0 1006.9 0.4
27/12:56pm 20.3 18.8 20.3 100 0.0 SSW 28 43 15 23 1006.9 1006.8 0.4
27/12:30pm 21.0 22.0 21.0 100 0.0 SW 17 22 9 12 1006.5 1006.4 0.2
27/12:00pm 21.7 23.6 21.4 98 0.2 SW 13 15 7 8 1006.2 1006.1 0.0
27/11:30am 21.3 23.6 21.3 100 0.0 S 11 13 6 7 1005.8 1005.7 0.0
27/11:00am 21.1 22.9 21.1 100 0.0 S 13 15 7 8 1005.7 1005.6 0.0
27/10:30am 21.4 23.7 21.4 100 0.0 SSW 11 15 6 8 1005.5 1005.4 0.0
27/10:00am 21.6 23.9 21.4 99 0.1 SSE 11 15 6 8 1005.4 1005.3 0.0
27/09:30am 21.4 24.0 21.2 99 0.1 SE 9 11 5 6 1005.2 1005.1 0.0
27/09:00am 21.2 23.8 21.2 100 0.0 SSE 9 13 5 7 1005.1 1005.0 11.2
27/08:30am 20.9 23.3 20.9 100 0.0 SE 9 13 5 7 1004.9 1004.8 11.2
27/08:00am 20.8 22.8 20.8 100 0.0 SE 11 15 6 8 1004.8 1004.7 11.2
27/07:30am 20.6 22.9 20.6 100 0.0 ESE 9 13 5 7 1004.8 1004.7 11.2
27/07:00am 20.6 22.5 20.6 100 0.0 ESE 11 17 6 9 1004.5 1004.4 11.2
27/06:30am 20.4 23.6 20.4 100 0.0 ESE 4 6 2 3 1004.7 1004.6 11.2
27/06:00am 20.2 23.6 20.2 100 0.0 SE 2 6 1 3 1004.6 1004.5 11.2
27/05:30am 20.1 22.5 20.1 100 0.0 ESE 7 11 4 6 1004.3 1004.2 11.2
27/05:00am 20.1 22.2 20.1 100 0.0 ESE 9 13 5 7 1004.0 1003.9 11.0
27/04:30am 20.1 22.2 20.1 100 0.0 SE 9 15 5 8 1004.3 1004.2 11.0
27/04:00am 19.9 22.2 19.9 100 0.0 SE 7 9 4 5 1004.4 1004.3 11.0
27/03:30am 19.3 21.5 19.3 100 0.0 SSE 6 7 3 4 1004.3 1004.2 11.0
27/03:00am 18.9 21.3 18.9 100 0.0 NE 4 4 2 2 1004.4 1004.3 11.0
27/02:30am 19.2 22.2 19.2 100 0.0 E 2 6 1 3 1004.3 1004.2 11.0
27/02:00am 19.4 21.7 19.4 100 0.0 NE 6 7 3 4 1004.3 1004.2 11.0
27/01:30am 19.6 22.0 19.6 100 0.0 ENE 6 6 3 3 1004.6 1004.5 11.0
27/01:00am 19.6 22.7 19.6 100 0.0 NNE 2 6 1 3 1005.0 1004.9 11.0
27/12:30am 20.1 22.5 20.1 100 0.0 NE 7 11 4 6 1005.2 1005.1 11.0
27/12:00am 20.7 22.9 20.5 99 0.1 WSW 9 17 5 9 1005.4 1005.3 10.2
 
Date/Time
WST
Temp
°C
App
Temp
°C
Dew
Point
Rel
Hum
%
Delta-T
°C
Wind Press
QNH
hPa
Press
MSL
hPa
Rain
since 9 am
mm
Dir
 
Spd
km/h
Gust
km/h
Spd
kts
Gust
kts
26/11:30pm 21.3 23.1 20.3 94 0.6 S 11 24 6 13 1007.5 1007.4 8.8
26/11:23pm 21.8 20.1 19.9 89 1.2 SSW 28 65 15 35 1005.9 1005.8 8.0
26/11:13pm 20.3 20.6 20.3 100 0.0 WNW 19 52 10 28 1008.1 1008.0 7.6
26/11:11pm 20.1 21.4 20.1 100 0.0 N 13 33 7 18 1007.6 1007.5 7.6
26/11:00pm 20.1 22.5 20.1 100 0.0 NE 7 11 4 6 1005.3 1005.2 7.6
26/10:30pm 19.9 21.9 19.9 100 0.0 NE 9 13 5 7 1005.6 1005.5 7.6
26/10:00pm 20.3 23.4 20.3 100 0.0 NNE 4 9 2 5 1006.1 1006.0 7.6
26/09:30pm 20.6 23.2 20.4 99 0.1 NE 7 9 4 5 1006.5 1006.4 7.6
26/09:00pm 20.8 23.1 20.6 99 0.1 NE 9 13 5 7 1006.7 1006.6 7.6
26/08:30pm 20.9 23.8 20.7 99 0.1 ENE 6 9 3 5 1007.0 1006.9 7.6
26/08:00pm 20.8 22.0 20.6 99 0.1 NNE 15 20 8 11 1006.4 1006.3 7.6
26/07:30pm 20.6 22.0 20.4 99 0.1 NE 13 19 7 10 1005.8 1005.7 7.6
26/07:00pm 20.6 21.6 20.3 98 0.2 NE 15 20 8 11 1005.9 1005.8 7.6
26/06:30pm 20.9 22.1 20.6 98 0.2 NE 15 20 8 11 1005.7 1005.6 7.6
26/06:00pm 20.9 22.1 20.6 98 0.2 ENE 15 20 8 11 1006.3 1006.2 7.6
26/05:30pm 21.1 22.7 20.8 98 0.2 SE 13 17 7 9 1006.6 1006.5 7.6
26/05:00pm 21.2 22.4 20.7 97 0.3 SSE 15 24 8 13 1006.9 1006.8 7.6
26/04:30pm 21.3 22.8 20.6 96 0.5 SSE 13 19 7 10 1007.0 1006.9 7.6
26/04:00pm 21.6 22.3 20.4 93 0.8 S 17 22 9 12 1006.9 1006.8 7.6
26/03:30pm 22.2 23.4 20.7 91 1.0 SSE 15 19 8 10 1006.8 1006.7 7.6
26/03:00pm 22.1 22.9 20.7 92 0.9 SSE 17 22 9 12 1006.6 1006.5 7.6
26/02:30pm 22.5 23.1 21.1 92 0.9 SSE 19 24 10 13 1006.5 1006.4 7.6
26/02:00pm 23.0 24.0 21.1 89 1.2 ESE 17 22 9 12 1006.5 1006.4 7.6
26/01:30pm 22.3 24.1 21.8 97 0.3 SE 15 19 8 10 1006.7 1006.6 7.6
26/01:00pm 21.6 22.9 21.6 100 0.0 ESE 17 22 9 12 1007.3 1007.2 7.6
26/12:36pm 20.9 22.9 20.7 99 0.1 ENE 11 24 6 13 1007.6 1007.5 5.8
26/12:30pm 21.5 24.2 20.7 95 0.5 N 7 13 4 7 1009.6 1009.5 1.0
26/12:00pm 22.1 22.6 20.0 88 1.4 S 17 22 9 12 1008.0 1007.9 0.0
26/11:30am 22.7 22.9 20.2 86 1.6 SSE 19 26 10 14 1008.5 1008.4 0.0
26/11:00am 23.8 24.1 20.5 82 2.2 S 19 26 10 14 1008.7 1008.6 0.0
26/10:30am 23.3 23.9 20.2 83 2.0 S 17 24 9 13 1008.6 1008.5 0.0
26/10:00am 23.0 25.1 20.1 84 1.9 ESE 9 15 5 8 1008.5 1008.4 0.0
26/09:30am 21.5 23.5 20.8 96 0.5 E 11 15 6 8 1009.1 1009.0 0.0
26/09:00am 20.8 22.7 20.5 98 0.2 SSE 11 17 6 9 1009.4 1009.3 0.2
26/08:30am 20.7 23.0 20.7 100 0.0 SE 9 15 5 8 1009.5 1009.4 0.2
26/08:00am 20.5 22.7 20.5 100 0.0 ESE 9 13 5 7 1009.4 1009.3 0.2
26/07:30am 20.3 22.5 20.3 100 0.0 E 9 13 5 7 1009.1 1009.0 0.2
26/07:00am 20.2 22.3 20.2 100 0.0 E 9 15 5 8 1009.4 1009.3 0.2
26/06:30am 20.1 22.2 20.1 100 0.0 SE 9 13 5 7 1009.3 1009.2 0.2
26/06:00am 20.0 22.0 20.0 100 0.0 ESE 9 13 5 7 1009.1 1009.0 0.0
26/05:30am 20.0 22.0 20.0 100 0.0 SE 9 15 5 8 1008.9 1008.8 0.0
26/05:00am 20.0 21.6 20.0 100 0.0 SE 11 15 6 8 1008.7 1008.6 0.0
26/04:30am 20.0 21.9 19.8 99 0.1 SSE 9 13 5 7 1009.1 1009.0 0.0
26/04:00am 20.0 21.2 19.8 99 0.1 SSE 13 17 7 9 1008.9 1008.8 0.0
26/03:30am 19.8 22.1 19.8 100 0.0 SE 7 11 4 6 1009.0 1008.9 0.0
26/03:00am 19.9 22.4 19.9 100 0.0 SE 6 11 3 6 1008.8 1008.7 0.0
26/02:30am 19.9 22.8 19.9 100 0.0 ENE 4 7 2 4 1008.6 1008.5 0.0
26/02:00am 19.8 22.3 19.8 100 0.0 ESE 6 7 3 4 1008.6 1008.5 0.0
26/01:30am 19.8 22.3 19.8 100 0.0 SSE 6 9 3 5 1009.1 1009.0 0.0
26/01:00am 19.7 20.8 19.7 100 0.0 SSE 13 20 7 11 1008.9 1008.8 0.0
26/12:30am 19.7 22.1 19.7 100 0.0 ESE 6 7 3 4 1010.1 1010.0 0.0
26/12:00am 19.8 21.7 19.8 100 0.0 SE 9 13 5 7 1010.6 1010.5 0.0
 
Date/Time
WST
Temp
°C
App
Temp
°C
Dew
Point
Rel
Hum
%
Delta-T
°C
Wind Press
QNH
hPa
Press
MSL
hPa
Rain
since 9 am
mm
Dir
 
Spd
km/h
Gust
km/h
Spd
kts
Gust
kts
25/11:30pm 19.9 22.8 19.9 100 0.0 SE 4 9 2 5 1011.3 1011.2 0.0
25/11:00pm 19.9 21.8 19.7 99 0.1 S 9 13 5 7 1011.2 1011.1 0.0
25/10:30pm 20.0 21.2 19.8 99 0.1 SW 13 20 7 11 1012.0 1011.9 0.0
25/10:00pm 20.2 22.0 19.5 96 0.4 W 9 15 5 8 1012.6 1012.6 0.0
25/09:30pm 20.2 21.2 19.5 96 0.4 S 13 17 7 9 1011.1 1011.0 0.0
25/09:00pm 20.2 21.9 19.4 95 0.5 SSE 9 15 5 8 1011.5 1011.4 0.0
25/08:30pm 20.2 21.2 19.4 95 0.5 SSE 13 17 7 9 1011.5 1011.4 0.0
25/08:00pm 20.3 21.6 19.3 94 0.6 S 11 15 6 8 1011.5 1011.4 0.0
25/07:30pm 20.3 21.1 19.1 93 0.8 S 13 22 7 12 1010.9 1010.8 0.0
25/07:00pm 20.4 20.9 19.2 93 0.8 SSE 15 20 8 11 1010.4 1010.3 0.0
25/06:30pm 20.5 20.7 19.3 93 0.8 S 17 24 9 13 1009.8 1009.7 0.0
25/06:00pm 20.6 20.4 19.4 93 0.8 S 19 24 10 13 1009.7 1009.6 0.0
25/05:30pm 20.7 20.4 19.2 91 0.9 S 19 28 10 15 1009.6 1009.5 0.0
25/05:00pm 21.0 21.0 19.7 92 0.8 S 19 28 10 15 1009.5 1009.4 0.0
25/04:30pm 21.4 21.2 19.7 90 1.1 SSW 20 26 11 14 1009.5 1009.4 0.0
25/04:00pm 21.6 21.3 19.5 88 1.3 SSW 20 24 11 13 1009.4 1009.3 0.0
25/03:30pm 21.7 21.5 19.4 87 1.5 S 19 26 10 14 1009.2 1009.1 0.0
25/03:00pm 21.7 21.2 20.0 90 1.1 SSW 22 28 12 15 1009.3 1009.2 0.0
25/02:30pm 21.9 21.5 20.2 90 1.1 SSW 22 28 12 15 1009.3 1009.2 0.0
25/02:00pm 22.1 21.3 20.0 88 1.4 SSW 24 33 13 18 1009.4 1009.3 0.0
25/01:30pm 21.9 21.5 20.2 90 1.1 SSW 22 32 12 17 1009.5 1009.4 0.0
25/01:00pm 22.0 20.9 20.3 90 1.1 SSW 26 33 14 18 1009.5 1009.4 0.0
25/12:30pm 22.9 21.4 20.2 85 1.7 SSW 28 39 15 21 1009.2 1009.1 0.0
25/12:00pm 23.1 21.0 20.6 86 1.6 SSW 32 43 17 23 1009.3 1009.2 0.0
25/11:30am 22.7 20.1 20.0 85 1.7 SW 33 43 18 23 1009.6 1009.5 0.0
25/11:00am 21.7 19.4 20.2 91 1.0 SW 32 41 17 22 1010.0 1009.9 0.0
25/10:30am 22.5 21.9 20.6 89 1.2 SW 24 35 13 19 1010.2 1010.1 0.0
25/10:00am 22.6 22.5 20.7 89 1.2 SW 22 32 12 17 1010.1 1010.0 0.0
25/09:30am 21.6 21.2 20.9 96 0.5 SW 24 33 13 18 1009.9 1009.8 0.0
25/09:00am 21.8 21.3 20.8 94 0.7 SW 24 35 13 19 1010.0 1009.9 0.6
25/08:30am 22.3 22.9 21.3 94 0.7 SW 20 30 11 16 1009.6 1009.5 0.6
25/08:00am 21.8 23.3 21.3 97 0.3 WSW 15 20 8 11 1009.1 1009.0 0.6
25/07:30am 21.8 22.9 21.3 97 0.3 WSW 17 24 9 13 1009.4 1009.3 0.6
25/07:00am 21.7 23.8 21.0 96 0.5 WSW 11 19 6 10 1009.4 1009.3 0.6
25/06:30am 22.0 22.6 21.0 94 0.7 WSW 19 26 10 14 1009.3 1009.2 0.6
25/06:00am 24.8 24.7 19.6 73 3.4 NW 19 30 10 16 1008.6 1008.5 0.6
25/05:30am 25.3 25.1 19.4 70 3.8 N 19 24 10 13 1007.2 1007.1 0.6

Other Formats:

Comma delimited format used in spreadsheet applications
http://www.bom.gov.au/fwo/IDW60801/IDW60801.95635.axf

JavaScript Object Notation format (JSON) in row-major order
http://www.bom.gov.au/fwo/IDW60801/IDW60801.95635.json